createdAt,value
2022-11-05T00:01:11.474Z,100181.91
2022-11-05T00:03:56.883Z,100280.47
2022-11-05T00:06:42.435Z,100235.09
2022-11-05T00:09:30.537Z,100180.75
2022-11-05T00:12:23.365Z,100169.06
2022-11-05T00:15:11.032Z,100278.97
2022-11-05T00:17:38.536Z,100289.16
2022-11-05T00:20:06.535Z,100260.47
2022-11-05T00:22:51.789Z,100286.47
2022-11-05T00:25:20.312Z,100270.13
2022-11-05T00:27:49.876Z,100214.41
2022-11-05T00:30:23.043Z,100305.31
2022-11-05T00:32:51.380Z,100138.97
2022-11-05T00:35:23.299Z,100283.13
2022-11-05T00:37:50.732Z,100295.16
2022-11-05T00:40:20.745Z,100272.47
2022-11-05T00:43:06.152Z,100300.97
2022-11-05T00:45:33.238Z,100301.66
2022-11-05T00:48:18.673Z,100276.97
2022-11-05T00:50:45.454Z,100304.47
2022-11-05T00:53:12.586Z,100289.09
2022-11-05T00:55:42.088Z,100330.31
2022-11-05T00:58:14.252Z,100316.47
2022-11-05T01:00:43.589Z,100292.94
2022-11-05T01:03:13.303Z,100329.50
2022-11-05T01:05:46.629Z,100220.47
2022-11-05T01:08:14.790Z,100335.47
2022-11-05T01:10:50.024Z,100323.63
2022-11-05T01:13:23.286Z,100325.31
2022-11-05T01:15:51.063Z,100283.78
2022-11-05T01:18:19.314Z,100311.97
2022-11-05T01:20:50.544Z,100337.53
2022-11-05T01:23:24.869Z,100232.38
2022-11-05T01:25:51.491Z,100300.44
2022-11-05T01:28:18.209Z,100332.16
2022-11-05T01:30:44.774Z,100335.97
2022-11-05T01:33:11.685Z,100266.03
2022-11-05T01:35:39.282Z,100311.94
2022-11-05T01:38:09.086Z,100336.09
2022-11-05T01:40:42.596Z,100286.72
2022-11-05T01:43:16.663Z,100323.78
2022-11-05T01:45:48.800Z,100280.91
2022-11-05T01:48:21.354Z,100329.13
2022-11-05T01:51:01.268Z,100332.31
2022-11-05T01:53:44.822Z,100324.28
2022-11-05T01:56:27.712Z,100323.16
2022-11-05T01:59:06.582Z,100326.81
2022-11-05T02:01:37.018Z,100334.16
2022-11-05T02:04:08.633Z,100132.63
2022-11-05T02:06:38.340Z,100331.78
2022-11-05T02:09:09.209Z,100324.47
2022-11-05T02:11:37.251Z,100340.16
2022-11-05T02:14:04.346Z,100342.94
2022-11-05T02:16:41.471Z,100336.16
2022-11-05T02:19:48.817Z,100340.97
2022-11-05T02:22:43.202Z,100332.66
2022-11-05T02:25:37.509Z,100302.09
2022-11-05T02:28:26.340Z,100252.66
2022-11-05T02:31:07.738Z,100340.47
2022-11-05T02:34:05.593Z,100347.44
2022-11-05T02:36:38.088Z,100343.81
2022-11-05T02:39:40.318Z,100325.91
2022-11-05T02:42:06.854Z,100368.44
2022-11-05T02:44:59.239Z,100356.53
2022-11-05T02:47:42.537Z,100372.06
2022-11-05T02:50:36.485Z,100386.50
2022-11-05T02:53:19.349Z,100372.75
2022-11-05T02:56:22.929Z,100319.56
2022-11-05T02:58:49.643Z,100345.66
2022-11-05T03:01:19.636Z,100396.69
2022-11-05T03:03:51.410Z,100335.34
2022-11-05T03:06:48.685Z,100152.34
2022-11-05T03:09:57.464Z,100399.59
2022-11-05T03:13:13.298Z,100405.44
2022-11-05T03:16:02.460Z,100399.34
2022-11-05T03:18:46.217Z,100363.69
2022-11-05T03:21:22.099Z,100409.53
2022-11-05T03:23:56.545Z,100393.16
2022-11-05T03:26:32.022Z,100403.72
2022-11-05T03:29:17.132Z,100393.25
2022-11-05T03:31:47.843Z,100400.69
2022-11-05T03:34:18.189Z,100404.25
2022-11-05T03:36:52.929Z,100381.88
2022-11-05T03:39:30.657Z,100423.34
2022-11-05T03:41:59.240Z,100442.88
2022-11-05T03:44:32.878Z,100438.72
2022-11-05T03:47:19.660Z,100394.75
2022-11-05T03:50:00.196Z,100408.91
2022-11-05T03:52:33.623Z,100408.22
2022-11-05T03:55:00.515Z,100304.78
2022-11-05T03:57:35.388Z,100424.31
2022-11-05T04:00:07.957Z,100453.41
2022-11-05T04:02:35.062Z,100452.44
2022-11-05T04:05:02.165Z,100312.00
2022-11-05T04:07:47.561Z,100340.41
2022-11-05T04:10:32.990Z,100471.06
2022-11-05T04:13:18.620Z,100474.91
2022-11-05T04:16:04.838Z,100390.59
2022-11-05T04:18:32.994Z,100467.94
2022-11-05T04:21:23.643Z,100488.09
2022-11-05T04:24:09.202Z,100375.59
2022-11-05T04:26:39.498Z,100498.31
2022-11-05T04:29:27.264Z,100511.72
2022-11-05T04:31:59.536Z,100430.31
2022-11-05T04:34:26.403Z,100507.00
2022-11-05T04:36:53.419Z,100472.31
2022-11-05T04:39:20.991Z,100468.09
2022-11-05T04:41:51.722Z,100486.31
2022-11-05T04:44:18.547Z,100458.50
2022-11-05T04:46:48.443Z,100494.34
2022-11-05T04:49:15.210Z,100400.66
2022-11-05T04:51:42.066Z,100504.44
2022-11-05T04:54:08.979Z,100387.09
2022-11-05T04:56:35.737Z,100485.72
2022-11-05T04:59:02.408Z,100492.31
2022-11-05T05:01:29.238Z,100486.09
2022-11-05T05:03:55.954Z,100478.88
2022-11-05T05:06:23.279Z,100484.00
2022-11-05T05:08:51.570Z,100495.22
2022-11-05T05:11:21.171Z,100508.63
2022-11-05T05:13:50.919Z,100513.13
2022-11-05T05:16:27.864Z,100473.50
2022-11-05T05:18:55.097Z,100491.72
2022-11-05T05:21:41.581Z,100498.81
2022-11-05T05:24:15.314Z,100383.00
2022-11-05T05:26:45.063Z,100520.13
2022-11-05T05:29:12.136Z,100505.13
2022-11-05T05:31:42.576Z,100491.72
2022-11-05T05:34:15.213Z,100524.16
2022-11-05T05:36:41.932Z,100522.88
2022-11-05T05:39:11.198Z,100471.59
2022-11-05T05:41:38.219Z,100422.09
2022-11-05T05:44:06.640Z,100495.22
2022-11-05T05:46:33.529Z,100550.63
2022-11-05T05:49:00.298Z,100454.97
2022-11-05T05:51:27.058Z,100539.81
2022-11-05T05:53:56.552Z,100561.78
2022-11-05T05:56:24.908Z,100531.38
2022-11-05T05:58:51.904Z,100546.84
2022-11-05T06:01:21.543Z,100515.66
2022-11-05T06:03:49.378Z,100546.44
2022-11-05T06:06:20.016Z,100530.44
2022-11-05T06:08:47.705Z,100502.53
2022-11-05T06:11:14.771Z,100580.28
2022-11-05T06:13:41.962Z,100571.00
2022-11-05T06:16:09.721Z,100582.84
2022-11-05T06:18:37.487Z,100494.53
2022-11-05T06:21:06.265Z,100575.78
2022-11-05T06:23:34.526Z,100561.38
2022-11-05T06:26:03.155Z,100606.63
2022-11-05T06:28:30.085Z,100376.78
2022-11-05T06:30:57.944Z,100532.06
2022-11-05T06:33:27.033Z,100387.97
2022-11-05T06:35:54.991Z,100622.91
2022-11-05T06:38:21.632Z,100620.53
2022-11-05T06:40:49.858Z,100595.03
2022-11-05T06:43:19.587Z,100575.28
2022-11-05T06:45:51.312Z,100636.09
2022-11-05T06:48:18.016Z,100634.94
2022-11-05T06:50:47.688Z,100622.16
2022-11-05T06:53:17.454Z,100613.47
2022-11-05T06:55:50.485Z,100566.34
2022-11-05T06:58:17.097Z,100653.66
2022-11-05T07:00:43.940Z,100652.59
2022-11-05T07:03:12.272Z,100595.91
2022-11-05T07:05:45.330Z,100663.00
2022-11-05T07:08:15.917Z,100677.06
2022-11-05T07:10:44.299Z,100665.25
2022-11-05T07:13:11.377Z,100690.03
2022-11-05T07:15:38.840Z,100696.34
2022-11-05T07:18:08.670Z,100686.81
2022-11-05T07:20:35.860Z,100698.25
2022-11-05T07:23:04.261Z,100709.13
2022-11-05T07:25:32.764Z,100655.09
2022-11-05T07:27:59.994Z,100612.34
2022-11-05T07:30:29.816Z,100677.94
2022-11-05T07:33:02.191Z,100706.09
2022-11-05T07:35:29.310Z,100715.78
2022-11-05T07:37:58.937Z,100653.09
2022-11-05T07:40:27.780Z,100538.91
2022-11-05T07:43:00.285Z,100668.25
2022-11-05T07:45:28.625Z,100719.25
2022-11-05T07:48:03.658Z,100626.13
2022-11-05T07:50:35.428Z,100731.38
2022-11-05T07:53:11.720Z,100687.91
2022-11-05T07:55:43.952Z,100734.44
2022-11-05T07:58:11.071Z,100744.44
2022-11-05T08:00:37.823Z,100745.78
2022-11-05T08:03:12.498Z,100732.28
2022-11-05T08:05:41.401Z,100737.88
2022-11-05T08:08:09.638Z,100631.97
2022-11-05T08:10:42.701Z,100747.16
2022-11-05T08:13:10.508Z,100728.25
2022-11-05T08:15:37.439Z,100629.78
2022-11-05T08:18:07.010Z,100738.47
2022-11-05T08:20:34.982Z,100732.41
2022-11-05T08:23:05.340Z,100767.59
2022-11-05T08:25:35.950Z,100715.81
2022-11-05T08:28:08.784Z,100672.59
2022-11-05T08:30:36.347Z,100676.16
2022-11-05T08:33:06.880Z,100772.16
2022-11-05T08:35:35.393Z,100787.25
2022-11-05T08:38:04.360Z,100756.09
2022-11-05T08:40:33.565Z,100786.63
2022-11-05T08:43:04.723Z,100589.72
2022-11-05T08:45:33.175Z,100781.91
2022-11-05T08:48:09.049Z,100773.53
2022-11-05T08:50:37.352Z,100791.44
2022-11-05T08:53:11.629Z,100805.38
2022-11-05T08:55:41.131Z,100780.75
2022-11-05T08:58:12.686Z,100792.78
2022-11-05T09:00:43.580Z,100728.94
2022-11-05T09:03:10.850Z,100779.81
2022-11-05T09:05:42.580Z,100730.72
2022-11-05T09:08:14.864Z,100789.50
2022-11-05T09:10:43.797Z,100701.41
2022-11-05T09:13:18.204Z,100830.41
2022-11-05T09:15:48.683Z,100800.63
2022-11-05T09:18:19.618Z,100834.50
2022-11-05T09:20:46.666Z,100818.44
2022-11-05T09:23:19.647Z,100833.81
2022-11-05T09:25:49.429Z,100809.41
2022-11-05T09:28:21.368Z,100702.38
2022-11-05T09:30:50.859Z,100837.53
2022-11-05T09:33:21.652Z,100729.38
2022-11-05T09:35:48.864Z,100810.09
2022-11-05T09:38:15.906Z,100814.81
2022-11-05T09:41:21.521Z,100830.38
2022-11-05T09:43:56.682Z,100852.50
2022-11-05T09:46:30.401Z,100851.81
2022-11-05T09:49:08.243Z,100724.22
2022-11-05T09:51:37.232Z,100836.50
2022-11-05T09:54:05.645Z,100855.44
2022-11-05T09:56:36.976Z,100803.19
2022-11-05T09:59:16.722Z,100854.63
2022-11-05T10:01:45.310Z,100855.09
2022-11-05T10:04:21.285Z,100825.63
2022-11-05T10:07:00.978Z,100840.38
2022-11-05T10:09:48.272Z,100796.03
2022-11-05T10:12:32.377Z,100838.88
2022-11-05T10:15:27.459Z,100842.22
2022-11-05T10:18:05.068Z,100839.50
2022-11-05T10:20:46.841Z,100849.69
2022-11-05T10:23:22.001Z,100799.88
2022-11-05T10:25:55.190Z,100814.34
2022-11-05T10:28:33.542Z,100856.47
2022-11-05T10:31:05.248Z,100784.75
2022-11-05T10:33:35.054Z,100834.28
2022-11-05T10:36:15.253Z,100815.72
2022-11-05T10:38:41.997Z,100785.19
2022-11-05T10:41:46.407Z,100837.53
2022-11-05T10:44:36.562Z,100845.81
2022-11-05T10:47:12.653Z,100788.38
2022-11-05T10:49:59.065Z,100691.22
2022-11-05T10:52:42.022Z,100823.53
2022-11-05T10:55:37.542Z,100845.59
2022-11-05T10:58:29.165Z,100851.69
2022-11-05T11:00:55.882Z,100846.75
2022-11-05T11:03:44.835Z,100854.41
2022-11-05T11:06:29.911Z,100647.19
2022-11-05T11:09:00.071Z,100801.97
2022-11-05T11:11:37.605Z,100845.94
2022-11-05T11:14:24.551Z,100851.34
2022-11-05T11:17:15.111Z,100863.13
2022-11-05T11:19:41.845Z,100846.88
2022-11-05T11:22:14.530Z,100856.78
2022-11-05T11:24:50.899Z,100857.34
2022-11-05T11:27:27.569Z,100845.50
2022-11-05T11:30:00.379Z,100824.09
2022-11-05T11:32:36.101Z,100783.31
2022-11-05T11:35:06.339Z,100852.59
2022-11-05T11:37:42.301Z,100788.97
2022-11-05T11:40:22.692Z,100830.81
2022-11-05T11:42:58.038Z,100849.16
2022-11-05T11:45:38.471Z,100846.84
2022-11-05T11:48:07.243Z,100851.22
2022-11-05T11:50:33.976Z,100860.50
2022-11-05T11:53:36.378Z,100837.56
2022-11-05T11:56:13.991Z,100868.22
2022-11-05T11:58:54.151Z,100820.97
2022-11-05T12:01:36.487Z,100856.81
2022-11-05T12:04:46.674Z,100841.06
2022-11-05T12:07:21.197Z,100816.47
2022-11-05T12:10:15.989Z,100648.59
2022-11-05T12:13:16.630Z,100851.91
2022-11-05T12:15:52.262Z,100821.81
2022-11-05T12:18:36.170Z,100853.59
2022-11-05T12:21:52.448Z,100802.69
2022-11-05T12:25:11.715Z,100854.91
2022-11-05T12:27:38.258Z,100850.88
2022-11-05T12:30:25.696Z,100799.72
2022-11-05T12:33:21.819Z,100849.84
2022-11-05T12:35:57.915Z,100820.28
2022-11-05T12:38:27.786Z,100855.41
2022-11-05T12:41:32.056Z,100852.06
2022-11-05T12:44:21.160Z,100849.53
2022-11-05T12:47:40.538Z,100828.47
2022-11-05T12:50:19.598Z,100850.56
2022-11-05T12:53:10.347Z,100847.06
2022-11-05T12:55:44.127Z,100855.25
2022-11-05T12:58:26.274Z,100842.50
2022-11-05T13:01:02.003Z,100846.69
2022-11-05T13:03:31.950Z,100845.66
2022-11-05T13:06:06.953Z,100824.00
2022-11-05T13:08:39.971Z,100834.63
2022-11-05T13:11:39.013Z,100792.34
2022-11-05T13:14:14.203Z,100844.88
2022-11-05T13:16:47.328Z,100842.69
2022-11-05T13:19:21.446Z,100741.50
2022-11-05T13:21:54.817Z,100835.66
2022-11-05T13:24:29.073Z,100857.59
2022-11-05T13:27:24.974Z,100845.38
2022-11-05T13:30:04.614Z,100793.03
2022-11-05T13:32:38.171Z,100853.59
2022-11-05T13:35:14.264Z,100830.50
2022-11-05T13:38:03.555Z,100861.66
2022-11-05T13:40:45.007Z,100844.56
2022-11-05T13:43:23.732Z,100852.75
2022-11-05T13:46:13.126Z,100841.25
2022-11-05T13:49:05.272Z,100850.09
2022-11-05T13:51:50.618Z,100846.75
2022-11-05T13:55:20.130Z,100860.31
2022-11-05T13:58:01.995Z,100870.34
2022-11-05T14:00:31.035Z,100865.03
2022-11-05T14:03:03.408Z,100846.28
2022-11-05T14:05:38.268Z,100869.19
2022-11-05T14:08:13.058Z,100862.28
2022-11-05T14:10:43.529Z,100825.84
2022-11-05T14:13:40.860Z,100878.72
2022-11-05T14:16:18.440Z,100851.59
2022-11-05T14:18:46.380Z,100880.22
2022-11-05T14:21:45.342Z,100874.34
2022-11-05T14:24:26.071Z,100828.22
2022-11-05T14:27:02.065Z,100877.56
2022-11-05T14:29:47.004Z,100889.47
2022-11-05T14:32:19.905Z,100696.13
2022-11-05T14:35:04.671Z,100863.38
2022-11-05T14:37:39.049Z,100889.00
2022-11-05T14:40:27.742Z,100889.84
2022-11-05T14:43:03.411Z,100815.53
2022-11-05T14:45:40.868Z,100852.53
2022-11-05T14:48:43.604Z,100854.06
2022-11-05T14:51:25.003Z,100836.47
2022-11-05T14:54:01.520Z,100861.78
2022-11-05T14:56:28.428Z,100889.53
2022-11-05T14:59:31.503Z,100898.25
2022-11-05T15:02:04.447Z,100902.28
2022-11-05T15:04:37.368Z,100899.78
2022-11-05T15:07:04.072Z,100899.78
2022-11-05T15:09:59.831Z,100898.94
2022-11-05T15:12:46.785Z,100870.81
2022-11-05T15:15:23.153Z,100885.53
2022-11-05T15:18:25.739Z,100905.50
2022-11-05T15:21:00.163Z,100900.63
2022-11-05T15:23:35.857Z,100871.84
2022-11-05T15:26:16.104Z,100888.75
2022-11-05T15:28:46.754Z,100900.63
2022-11-05T15:31:13.309Z,100908.03
2022-11-05T15:33:46.829Z,100801.88
2022-11-05T15:36:31.165Z,100891.75
2022-11-05T15:39:27.848Z,100819.09
2022-11-05T15:41:46.962Z,100855.78
2022-11-05T15:44:31.650Z,100872.84
2022-11-05T15:47:18.562Z,100891.59
2022-11-05T15:49:52.085Z,100848.56
2022-11-05T15:52:22.105Z,100883.41
2022-11-05T15:55:13.235Z,100915.72
2022-11-05T15:57:57.471Z,100896.13
2022-11-05T16:00:26.894Z,100916.91
2022-11-05T16:03:23.196Z,100882.72
2022-11-05T16:05:53.449Z,100912.72
2022-11-05T16:08:29.224Z,100917.06
2022-11-05T16:11:00.986Z,100902.50
2022-11-05T16:13:30.328Z,100930.63
2022-11-05T16:16:00.381Z,100931.28
2022-11-05T16:18:43.586Z,100921.34
2022-11-05T16:21:18.334Z,100907.28
2022-11-05T16:23:57.392Z,100897.84
2022-11-05T16:27:01.798Z,100908.69
2022-11-05T16:29:40.739Z,100941.38
2022-11-05T16:32:17.291Z,100929.13
2022-11-05T16:34:59.232Z,100947.91
2022-11-05T16:37:27.997Z,100945.72
2022-11-05T16:40:10.264Z,100937.09
2022-11-05T16:42:41.829Z,100961.38
2022-11-05T16:45:12.818Z,100944.91
2022-11-05T16:47:40.013Z,100957.91
2022-11-05T16:50:15.540Z,100961.59
2022-11-05T16:52:47.574Z,100945.44
2022-11-05T16:55:15.899Z,100965.09
2022-11-05T16:57:45.835Z,100949.69
2022-11-05T17:03:04.329Z,100970.41
2022-11-05T17:05:31.586Z,100959.44
2022-11-05T17:08:01.114Z,100955.22
2022-11-05T17:10:29.640Z,100985.22
2022-11-05T17:12:56.699Z,100998.25
2022-11-05T17:15:31.485Z,100970.88
2022-11-05T17:17:59.890Z,100985.91
2022-11-05T17:20:38.559Z,100994.41
2022-11-05T17:23:14.980Z,100769.31
2022-11-05T17:25:45.890Z,100995.19
2022-11-05T17:28:16.035Z,101001.53
2022-11-05T17:30:49.241Z,101002.59
2022-11-05T17:33:20.327Z,101002.78
2022-11-05T17:35:49.048Z,101004.72
2022-11-05T17:38:15.921Z,100993.16
2022-11-05T17:40:48.575Z,101020.72
2022-11-05T17:43:16.061Z,101009.03
2022-11-05T17:45:47.901Z,101041.84
2022-11-05T17:48:16.211Z,101013.63
2022-11-05T17:50:46.693Z,101045.28
2022-11-05T17:53:15.303Z,101035.50
2022-11-05T17:55:45.305Z,101020.53
2022-11-05T17:58:16.193Z,101043.53
2022-11-05T18:00:44.539Z,101043.16
2022-11-05T18:03:12.623Z,101027.22
2022-11-05T18:05:40.778Z,101051.72
2022-11-05T18:08:11.898Z,100983.53
2022-11-05T18:10:39.675Z,101058.06
2022-11-05T18:13:11.213Z,100960.06
2022-11-05T18:15:43.129Z,101064.25
2022-11-05T18:18:10.171Z,101063.72
2022-11-05T18:20:37.717Z,101038.78
2022-11-05T18:23:35.587Z,101061.56
2022-11-05T18:26:05.606Z,101053.72
2022-11-05T18:28:32.788Z,101014.00
2022-11-05T18:30:59.403Z,101036.94
2022-11-05T18:33:26.402Z,101021.22
2022-11-05T18:35:57.888Z,101040.78
2022-11-05T18:38:24.604Z,101060.03
2022-11-05T18:40:51.564Z,101051.19
2022-11-05T18:43:19.530Z,101051.13
2022-11-05T18:45:46.338Z,101037.00
2022-11-05T18:48:13.995Z,101052.16
2022-11-05T18:50:43.055Z,101041.56
2022-11-05T18:53:12.695Z,100979.75
2022-11-05T18:55:41.018Z,101044.38
2022-11-05T18:58:11.148Z,101081.34
2022-11-05T19:00:45.317Z,101064.66
2022-11-05T19:03:12.947Z,101071.16
2022-11-05T19:05:40.778Z,101064.72
2022-11-05T19:08:07.677Z,101033.84
2022-11-05T19:10:34.391Z,100948.22
2022-11-05T19:13:01.872Z,101061.09
2022-11-05T19:15:29.201Z,101097.25
2022-11-05T19:17:56.155Z,101079.66
2022-11-05T19:20:25.248Z,101094.28
2022-11-05T19:22:52.331Z,101105.66
2022-11-05T19:25:19.439Z,101105.56
2022-11-05T19:27:49.058Z,101101.22
2022-11-05T19:30:16.021Z,101103.78
2022-11-05T19:32:43.257Z,101106.88
2022-11-05T19:35:10.967Z,101009.31
2022-11-05T19:37:38.272Z,101100.03
2022-11-05T19:40:05.501Z,101087.97
2022-11-05T19:42:35.690Z,101099.50
2022-11-05T19:45:23.169Z,101120.81
2022-11-05T19:47:49.304Z,101113.50
2022-11-05T19:50:16.080Z,101119.84
2022-11-05T19:52:42.766Z,101098.09
2022-11-05T19:55:12.271Z,101131.25
2022-11-05T19:57:39.233Z,101120.84
2022-11-05T20:00:06.332Z,101134.59
2022-11-05T20:02:33.033Z,101065.72
2022-11-05T20:05:02.680Z,101139.94
2022-11-05T20:07:33.374Z,101149.63
2022-11-05T20:09:59.954Z,101135.88
2022-11-05T20:12:27.194Z,101154.53
2022-11-05T20:14:54.073Z,101138.25
2022-11-05T20:17:21.710Z,101159.72
2022-11-05T20:19:48.563Z,101160.56
2022-11-05T20:22:15.723Z,101105.41
2022-11-05T20:24:43.367Z,101178.66
2022-11-05T20:27:10.516Z,101079.28
2022-11-05T20:29:37.542Z,101183.31
2022-11-05T20:32:04.919Z,101179.06
2022-11-05T20:34:33.556Z,101199.16
2022-11-05T20:37:00.631Z,101191.41
2022-11-05T20:39:30.495Z,101006.03
2022-11-05T20:42:00.795Z,101191.81
2022-11-05T20:44:28.130Z,101179.91
2022-11-05T20:46:54.970Z,101181.97
2022-11-05T20:49:25.338Z,101204.84
2022-11-05T20:51:52.798Z,101195.41
2022-11-05T20:54:20.739Z,101143.31
2022-11-05T20:56:48.250Z,101220.69
2022-11-05T20:59:14.974Z,101207.88
2022-11-05T21:01:41.964Z,101214.75
2022-11-05T21:04:08.975Z,101211.94
2022-11-05T21:06:37.988Z,101159.13
2022-11-05T21:09:08.265Z,101165.06
2022-11-05T21:11:58.367Z,101196.53
2022-11-05T21:14:25.652Z,101201.72
2022-11-05T21:16:53.985Z,101221.25
2022-11-05T21:19:25.973Z,101217.59
2022-11-05T21:21:52.809Z,101228.34
2022-11-05T21:24:20.982Z,101219.06
2022-11-05T21:26:51.747Z,101157.38
2022-11-05T21:29:24.710Z,101225.41
2022-11-05T21:31:52.011Z,101200.56
2022-11-05T21:34:19.927Z,101208.81
2022-11-05T21:36:48.094Z,101227.63
2022-11-05T21:39:15.927Z,101198.94
2022-11-05T21:41:48.654Z,101226.16
2022-11-05T21:44:17.219Z,101240.53
2022-11-05T21:46:45.307Z,101230.31
2022-11-05T21:49:14.804Z,101216.09
2022-11-05T21:52:00.366Z,101236.16
2022-11-05T21:54:46.718Z,101209.16
2022-11-05T21:57:40.745Z,101232.22
2022-11-05T22:00:10.383Z,101248.34
2022-11-05T22:02:37.500Z,101247.25
2022-11-05T22:05:08.617Z,101192.44
2022-11-05T22:07:40.689Z,101247.84
2022-11-05T22:10:15.902Z,101241.66
2022-11-05T22:12:43.841Z,101229.25
2022-11-05T22:15:10.990Z,101242.69
2022-11-05T22:17:40.430Z,101232.84
2022-11-05T22:20:11.115Z,101185.81
2022-11-05T22:22:41.647Z,101243.16
2022-11-05T22:25:08.703Z,101220.91
2022-11-05T22:27:35.706Z,101240.59
2022-11-05T22:30:05.927Z,101246.47
2022-11-05T22:32:33.396Z,101248.75
2022-11-05T22:35:06.592Z,101229.34
2022-11-05T22:37:33.529Z,101214.03
2022-11-05T22:40:12.485Z,101235.72
2022-11-05T22:42:39.369Z,101234.72
2022-11-05T22:45:07.367Z,101205.72
2022-11-05T22:47:34.459Z,101240.59
2022-11-05T22:50:01.612Z,101213.66
2022-11-05T22:52:33.529Z,101196.31
2022-11-05T22:55:09.771Z,101249.47
2022-11-05T22:57:36.333Z,101232.75
2022-11-05T23:00:19.973Z,101241.88
2022-11-05T23:02:47.436Z,101253.13
2022-11-05T23:05:17.054Z,101232.34
2022-11-05T23:08:04.774Z,101247.59
2022-11-05T23:10:50.416Z,101253.13
2022-11-05T23:13:17.958Z,101175.88
2022-11-05T23:16:06.090Z,101240.53
2022-11-05T23:18:51.259Z,101216.09
2022-11-05T23:21:36.940Z,101251.03
2022-11-05T23:24:12.122Z,101216.03
2022-11-05T23:26:51.880Z,101250.53
2022-11-05T23:29:26.289Z,101248.00
2022-11-05T23:32:12.013Z,101094.34
2022-11-05T23:34:39.398Z,101144.06
2022-11-05T23:37:24.660Z,101264.88
2022-11-05T23:39:51.700Z,101272.41
2022-11-05T23:42:40.627Z,101265.09
2022-11-05T23:45:30.186Z,101270.78
2022-11-05T23:48:16.112Z,101265.81
2022-11-05T23:50:49.881Z,101286.94
2022-11-05T23:53:19.822Z,101268.84
2022-11-05T23:55:46.480Z,101289.16
2022-11-05T23:58:16.598Z,101283.38
